Time;durP1;ratioP1;P1;durP2;ratioP2;P2;SDS_P1;SDS_P2;PMS_P1;PMS_P2;Temp;Humidity;BMP_temperature;BMP_pressure;BME280_temperature;BME280_humidity;BME280_pressure;Samples;Min_cycle;Max_cycle;Signal;HPM_P1;HPM_P2
2023/08/20 00:00:58;;;;;;;21.50;17.20;;;;;;;24.33;95.52;100683.05;670939;1273;140706;-79
2023/08/20 00:16:22;;;;;;;24.30;17.80;;;;;;;24.36;95.97;100679.45;671771;1267;141468;-79
2023/08/20 00:31:26;;;;;;;20.00;16.80;;;;;;;24.46;94.71;100669.21;671245;1266;139701;-79
2023/08/20 00:46:31;;;;;;;22.80;16.60;;;;;;;24.23;94.94;100650.98;672722;1265;138952;-79
2023/08/20 01:01:34;;;;;;;46.10;28.20;;;;;;;24.27;95.10;100645.40;672813;1263;139892;-79
2023/08/20 01:16:38;;;;;;;45.40;22.80;;;;;;;24.24;95.01;100651.04;673037;1263;140858;-79
2023/08/20 01:31:43;;;;;;;26.20;18.80;;;;;;;24.25;94.75;100663.60;672728;1264;140545;-79
2023/08/20 01:46:47;;;;;;;24.40;18.70;;;;;;;24.20;94.46;100676.41;672849;1263;139583;-79
2023/08/20 02:01:50;;;;;;;34.30;21.20;;;;;;;24.02;95.87;100684.89;672925;1263;140397;-79
2023/08/20 02:17:57;;;;;;;28.70;22.00;;;;;;;23.87;96.23;100693.16;652764;1298;545410;-79
2023/08/20 02:33:00;;;;;;;31.00;21.40;;;;;;;23.58;98.22;100690.17;669304;1269;138560;-79
2023/08/20 02:48:04;;;;;;;30.10;22.20;;;;;;;23.68;97.95;100680.77;669121;1272;139097;-79
2023/08/20 03:03:09;;;;;;;28.00;22.60;;;;;;;23.63;98.14;100679.29;669389;1269;138775;-79
2023/08/20 03:18:14;;;;;;;35.20;24.60;;;;;;;23.17;99.19;100672.56;669325;1271;139879;-79
2023/08/20 03:33:17;;;;;;;26.90;20.80;;;;;;;23.01;100.00;100670.45;669502;1269;139317;-79
2023/08/20 03:48:21;;;;;;;32.10;24.40;;;;;;;22.92;99.91;100669.84;669519;1272;140206;-79
2023/08/20 04:03:25;;;;;;;28.00;20.50;;;;;;;23.16;100.00;100674.05;669728;1276;139275;-80
2023/08/20 04:18:28;;;;;;;27.90;21.30;;;;;;;23.25;99.50;100671.63;671510;1275;141726;-80
2023/08/20 04:33:32;;;;;;;34.00;22.80;;;;;;;23.30;99.95;100678.27;669770;1273;138718;-78
2023/08/20 04:48:35;;;;;;;29.60;24.20;;;;;;;23.77;99.95;100683.96;666940;1272;139952;-78
2023/08/20 05:03:39;;;;;;;35.00;24.40;;;;;;;24.10;99.84;100695.52;666851;1272;139099;-78
2023/08/20 05:18:43;;;;;;;66.90;46.30;;;;;;;24.56;100.00;100699.77;668345;1269;140120;-78
2023/08/20 05:33:46;;;;;;;35.60;26.20;;;;;;;26.63;98.52;100712.63;665034;1273;140559;-78
2023/08/20 05:48:50;;;;;;;24.70;19.30;;;;;;;29.95;91.32;100720.60;665597;1269;141366;-78
2023/08/20 06:03:53;;;;;;;22.30;19.70;;;;;;;32.20;84.19;100725.23;665255;1273;138770;-78
2023/08/20 06:18:58;;;;;;;22.40;20.00;;;;;;;33.35;77.46;100745.14;672361;1267;139848;-79
2023/08/20 06:34:05;;;;;;;22.40;20.00;;;;;;;33.18;74.81;100752.56;672811;1267;138826;-79
2023/08/20 06:49:08;;;;;;;24.20;19.70;;;;;;;34.44;73.13;100756.56;672652;1266;138961;-79
2023/08/20 07:04:12;;;;;;;24.40;21.80;;;;;;;33.67;73.55;100767.12;672181;1263;138954;-79
2023/08/20 07:19:15;;;;;;;22.00;19.60;;;;;;;34.93;73.36;100763.55;672262;1269;138844;-79
2023/08/20 07:34:19;;;;;;;22.80;20.00;;;;;;;35.89;68.92;100762.24;672481;1267;139951;-79
2023/08/20 07:49:22;;;;;;;19.60;17.60;;;;;;;34.92;71.64;100766.71;672081;1278;140007;-79
2023/08/20 08:04:26;;;;;;;23.80;17.80;;;;;;;37.28;66.68;100773.50;671883;1267;138611;-79
2023/08/20 08:19:29;;;;;;;17.10;14.70;;;;;;;38.57;63.43;100773.35;671850;1268;140243;-79
2023/08/20 08:34:33;;;;;;;15.20;13.60;;;;;;;39.88;60.02;100755.05;670371;1266;139226;-79
2023/08/20 08:49:36;;;;;;;13.10;11.50;;;;;;;40.06;58.12;100749.73;670185;1266;138573;-77
2023/08/20 09:04:41;;;;;;;12.80;11.60;;;;;;;40.60;55.87;100751.39;669555;1263;138515;-77
2023/08/20 09:19:46;;;;;;;11.70;10.50;;;;;;;39.65;54.99;100742.27;668881;1265;139211;-77
2023/08/20 09:34:51;;;;;;;12.30;10.70;;;;;;;40.58;54.68;100739.54;669087;1263;139089;-77
2023/08/20 09:49:56;;;;;;;12.40;11.20;;;;;;;40.55;54.88;100733.90;667945;1266;139059;-77
2023/08/20 10:05:01;;;;;;;12.40;11.30;;;;;;;40.01;53.35;100722.79;668152;1260;138422;-77
2023/08/20 10:20:07;;;;;;;11.70;10.40;;;;;;;40.63;54.54;100717.40;667968;1272;139614;-78
2023/08/20 10:35:12;;;;;;;10.40;9.40;;;;;;;40.41;53.77;100716.81;668537;1265;139800;-78
2023/08/20 10:50:17;;;;;;;11.20;9.70;;;;;;;39.63;51.13;100709.61;668212;1275;138223;-78
2023/08/20 11:05:23;;;;;;;9.40;8.50;;;;;;;39.27;51.38;100704.03;668612;1264;138622;-80
2023/08/20 11:20:27;;;;;;;12.00;9.70;;;;;;;37.76;53.01;100701.20;671032;1265;138259;-79
2023/08/20 11:35:31;;;;;;;11.10;10.00;;;;;;;38.54;53.14;100701.96;668996;1261;138789;-79
2023/08/20 11:50:37;;;;;;;9.60;8.70;;;;;;;39.06;52.29;100699.65;668204;1273;138548;-77
2023/08/20 12:05:43;;;;;;;8.50;7.70;;;;;;;39.17;50.68;100687.55;668132;1268;139367;-78
2023/08/20 12:20:47;;;;;;;8.50;7.60;;;;;;;39.24;49.89;100670.05;669285;1266;139354;-80
2023/08/20 12:35:54;;;;;;;10.80;8.40;;;;;;;38.42;50.55;100671.14;670264;1267;139597;-80
2023/08/20 12:50:58;;;;;;;11.90;9.40;;;;;;;37.42;51.91;100674.15;674212;1264;139650;-78
2023/08/20 13:06:01;;;;;;;10.00;8.90;;;;;;;37.78;52.10;100669.46;671743;1264;140124;-78
2023/08/20 13:21:04;;;;;;;9.50;8.70;;;;;;;38.11;51.99;100664.08;668524;1264;139691;-78
2023/08/20 13:36:08;;;;;;;9.40;8.40;;;;;;;38.11;51.27;100652.19;669025;1267;139104;-78
2023/08/20 13:51:12;;;;;;;10.40;9.10;;;;;;;38.75;51.74;100644.96;668148;1264;141809;-78
2023/08/20 14:06:16;;;;;;;10.50;8.20;;;;;;;38.31;52.06;100641.06;669434;1270;138338;-78
2023/08/20 14:21:19;;;;;;;9.00;8.30;;;;;;;37.52;52.66;100644.34;668205;1263;184651;-77
2023/08/20 14:36:23;;;;;;;9.40;8.60;;;;;;;38.35;51.51;100636.82;669031;1263;138371;-77
2023/08/20 14:51:28;;;;;;;14.40;7.50;;;;;;;38.31;50.51;100622.77;668718;1264;138996;-77
2023/08/20 15:06:31;;;;;;;8.50;7.70;;;;;;;38.08;51.92;100615.15;669314;1264;141032;-77
2023/08/20 15:21:35;;;;;;;10.10;8.90;;;;;;;37.72;52.39;100610.55;670249;1261;138456;-77
2023/08/20 15:36:38;;;;;;;8.40;7.60;;;;;;;37.72;53.01;100607.43;668402;1264;139678;-78
2023/08/20 15:51:42;;;;;;;9.60;8.70;;;;;;;37.54;52.79;100592.59;668542;1263;140095;-78
2023/08/20 16:06:46;;;;;;;10.00;8.30;;;;;;;37.12;53.55;100587.00;668038;1261;138428;-77
2023/08/20 16:21:49;;;;;;;9.90;8.80;;;;;;;36.30;54.49;100591.23;668307;1260;140286;-78
2023/08/20 16:36:53;;;;;;;10.30;9.20;;;;;;;35.28;57.35;100617.40;668651;1259;138129;-78
2023/08/20 16:51:57;;;;;;;17.10;13.30;;;;;;;34.19;60.52;100629.48;669790;1259;139439;-79
2023/08/20 17:07:00;;;;;;;17.40;10.70;;;;;;;33.25;63.05;100624.80;670234;1258;138668;-79
2023/08/20 17:22:04;;;;;;;15.90;12.20;;;;;;;32.81;64.88;100640.02;668457;1261;140312;-78
2023/08/20 17:37:08;;;;;;;15.80;12.20;;;;;;;32.49;66.41;100648.70;670802;1260;138283;-78
2023/08/20 17:52:11;;;;;;;29.20;17.60;;;;;;;32.09;67.66;100652.75;668236;1275;139753;-78
2023/08/20 18:07:15;;;;;;;13.00;7.70;;;;;;;31.43;70.66;100710.16;668990;1264;138386;-77
2023/08/20 18:22:18;;;;;;;9.70;7.20;;;;;;;29.89;73.70;100742.86;668949;1263;138540;-77
2023/08/20 18:37:22;;;;;;;9.90;7.80;;;;;;;29.43;75.04;100724.00;670384;1262;138336;-79
2023/08/20 18:52:26;;;;;;;11.40;7.40;;;;;;;29.44;75.15;100736.50;672911;1267;138703;-79
2023/08/20 19:07:30;;;;;;;29.50;13.80;;;;;;;29.16;75.23;100743.02;673501;1261;138851;-79
2023/08/20 19:22:33;;;;;;;14.70;9.40;;;;;;;28.93;77.16;100734.63;673247;1263;140724;-79
2023/08/20 19:37:37;;;;;;;32.40;18.70;;;;;;;29.07;77.34;100740.77;673361;1262;139712;-79
2023/08/20 19:52:42;;;;;;;17.90;11.20;;;;;;;29.29;77.17;100751.25;673390;1263;140634;-79
2023/08/20 20:07:46;;;;;;;13.70;9.60;;;;;;;28.77;78.31;100759.48;673540;1262;140281;-79
2023/08/20 20:22:49;;;;;;;23.20;17.00;;;;;;;28.59;78.83;100773.20;673365;1262;139086;-79
2023/08/20 20:37:53;;;;;;;15.90;11.70;;;;;;;28.03;80.76;100781.86;673140;1262;138900;-79
2023/08/20 20:52:57;;;;;;;16.80;12.40;;;;;;;27.65;82.83;100783.23;672991;1266;139538;-79
2023/08/20 21:08:00;;;;;;;20.10;12.20;;;;;;;27.45;84.13;100788.52;673040;1262;139594;-79
2023/08/20 21:23:04;;;;;;;14.90;12.70;;;;;;;27.34;85.08;100796.20;672994;1262;141305;-79
2023/08/20 21:38:08;;;;;;;16.50;12.30;;;;;;;27.19;85.68;100801.81;673022;1262;139264;-80
2023/08/20 21:53:11;;;;;;;16.20;13.90;;;;;;;26.91;87.09;100813.37;671694;1263;139207;-79
2023/08/20 22:08:16;;;;;;;15.00;12.90;;;;;;;26.58;88.59;100811.77;673211;1259;139006;-79
2023/08/20 22:23:20;;;;;;;13.90;12.20;;;;;;;26.36;90.25;100819.56;673067;1263;140028;-79
2023/08/20 22:38:23;;;;;;;14.20;12.50;;;;;;;26.05;90.89;100820.89;672897;1261;140396;-79
2023/08/20 22:53:27;;;;;;;14.70;12.40;;;;;;;25.88;91.98;100823.02;673026;1270;139427;-79
2023/08/20 23:08:30;;;;;;;16.60;12.90;;;;;;;25.93;91.46;100841.27;672936;1263;138965;-79
2023/08/20 23:23:34;;;;;;;16.40;13.20;;;;;;;25.76;91.13;100839.58;672781;1266;139466;-79
2023/08/20 23:38:39;;;;;;;17.20;15.10;;;;;;;25.23;93.66;100845.66;672510;1265;140789;-79
2023/08/20 23:53:43;;;;;;;18.50;14.60;;;;;;;24.74;95.33;100843.77;672653;1264;140721;-79
